Terminal Aerodrome Forecast
Issued by NWS

Home | Current Version | Previous Version | Text Only | Print | Product List | Glossary On
Versions: 1 2 3 4 5 6 7 8 9 10 11 12 13 14 15 16 17
000
FTUS45 KFGZ 270526
TAFGCN
TAF
KGCN 270526Z 2706/2806 VRB03KT P6SM SCT090 BKN180
     FM271800 22010G15KT P6SM FEW100 BKN160=

USA.gov is the U.S. government's official web portal to all federal, state and local government web resources and services.